createdAt,value
2023-02-20T00:01:27.504Z,101106.88
2023-02-20T00:03:55.622Z,101108.84
2023-02-20T00:06:25.237Z,101104.63
2023-02-20T00:08:53.387Z,101105.75
2023-02-20T00:11:21.451Z,101110.84
2023-02-20T00:13:50.915Z,101106.31
2023-02-20T00:16:19.004Z,101112.72
2023-02-20T00:18:47.076Z,101106.16
2023-02-20T00:21:15.124Z,101108.44
2023-02-20T00:23:44.602Z,101110.13
2023-02-20T00:26:13.800Z,101115.25
2023-02-20T00:28:44.211Z,101116.25
2023-02-20T00:31:15.090Z,101113.97
2023-02-20T00:33:43.798Z,101109.28
2023-02-20T00:36:15.633Z,101108.31
2023-02-20T00:38:45.402Z,101110.84
2023-02-20T00:41:15.697Z,101111.00
2023-02-20T00:43:43.952Z,101106.88
2023-02-20T00:46:12.995Z,101109.44
2023-02-20T00:48:41.327Z,101106.88
2023-02-20T00:51:28.425Z,101113.97
2023-02-20T00:53:57.974Z,101108.56
2023-02-20T00:56:27.661Z,101107.44
2023-02-20T00:58:58.201Z,101104.59
2023-02-20T01:01:27.822Z,101109.69
2023-02-20T01:03:56.059Z,101106.00
2023-02-20T01:06:24.272Z,101102.31
2023-02-20T01:08:52.696Z,101099.03
2023-02-20T01:11:24.031Z,101089.97
2023-02-20T01:13:53.862Z,101085.53
2023-02-20T01:16:23.913Z,101081.56
2023-02-20T01:18:52.410Z,101086.81
2023-02-20T01:21:20.592Z,101083.13
2023-02-20T01:23:50.113Z,101081.28
2023-02-20T01:26:18.157Z,101079.28
2023-02-20T01:28:49.471Z,101074.75
2023-02-20T01:31:17.651Z,101074.59
2023-02-20T01:33:46.215Z,101068.50
2023-02-20T01:36:14.768Z,101067.47
2023-02-20T01:38:43.697Z,101065.66
2023-02-20T01:41:12.420Z,101061.09
2023-02-20T01:43:40.658Z,101060.09
2023-02-20T01:46:41.932Z,101068.06
2023-02-20T01:49:15.169Z,101057.94
2023-02-20T01:51:44.457Z,101050.00
2023-02-20T01:54:15.510Z,101044.91
2023-02-20T01:56:45.687Z,101045.19
2023-02-20T01:59:14.482Z,101045.34
2023-02-20T02:01:42.742Z,101048.06
2023-02-20T02:04:13.961Z,101045.50
2023-02-20T02:06:42.932Z,101040.41
2023-02-20T02:09:14.097Z,101038.41
2023-02-20T02:11:42.223Z,101038.41
2023-02-20T02:14:10.563Z,101035.69
2023-02-20T02:16:42.107Z,101027.91
2023-02-20T02:19:19.609Z,101036.41
2023-02-20T02:22:05.802Z,101039.38
2023-02-20T02:24:51.332Z,101042.81
2023-02-20T02:27:43.447Z,101051.28
2023-02-20T02:30:26.387Z,101037.94
2023-02-20T02:33:03.708Z,101043.78
2023-02-20T02:35:55.820Z,101034.53
2023-02-20T02:38:27.533Z,101036.94
2023-02-20T02:41:06.493Z,101026.13
2023-02-20T02:43:36.752Z,101030.41
2023-02-20T02:46:08.801Z,101024.84
2023-02-20T02:48:38.532Z,101032.38
2023-02-20T02:51:09.689Z,101018.72
2023-02-20T02:53:39.202Z,101011.50
2023-02-20T02:56:21.279Z,101014.34
2023-02-20T02:58:50.221Z,101009.94
2023-02-20T03:01:19.898Z,101008.22
2023-02-20T03:03:53.097Z,100999.03
2023-02-20T03:06:24.709Z,100993.34
2023-02-20T03:08:58.065Z,100998.72
2023-02-20T03:11:27.236Z,100997.44
2023-02-20T03:14:15.337Z,100997.44
2023-02-20T03:16:46.911Z,100999.44
2023-02-20T03:19:16.025Z,100999.16
2023-02-20T03:21:47.546Z,100996.44
2023-02-20T03:24:18.625Z,100990.34
2023-02-20T03:26:49.331Z,100988.34
2023-02-20T03:29:20.860Z,100997.13
2023-02-20T03:32:05.889Z,100995.16
2023-02-20T03:34:52.167Z,100999.16
2023-02-20T03:37:40.225Z,100999.84
2023-02-20T03:40:30.320Z,100996.31
2023-02-20T03:43:20.717Z,100995.31
2023-02-20T03:45:50.046Z,100998.84
2023-02-20T03:48:22.931Z,100996.84
2023-02-20T03:50:51.256Z,100994.28
2023-02-20T03:53:20.706Z,100992.63
2023-02-20T03:55:51.378Z,100997.84
2023-02-20T03:58:23.532Z,100996.00
2023-02-20T04:00:54.897Z,100994.84
2023-02-20T04:03:24.579Z,100999.25
2023-02-20T04:05:55.895Z,101003.63
2023-02-20T04:08:36.016Z,100991.44
2023-02-20T04:11:08.547Z,100995.69
2023-02-20T04:13:38.686Z,100981.50
2023-02-20T04:16:08.685Z,100983.66
2023-02-20T04:18:37.091Z,100987.22
2023-02-20T04:21:10.380Z,100988.34
2023-02-20T04:23:42.345Z,100993.28
2023-02-20T04:26:14.982Z,100987.22
2023-02-20T04:28:45.893Z,100986.66
2023-02-20T04:31:17.956Z,100978.69
2023-02-20T04:33:47.481Z,100987.50
2023-02-20T04:36:21.140Z,100986.34
2023-02-20T04:38:51.057Z,100986.66
2023-02-20T04:41:24.112Z,100984.94
2023-02-20T04:44:12.278Z,100982.97
2023-02-20T04:46:41.039Z,100977.56
2023-02-20T04:49:09.535Z,100979.28
2023-02-20T04:51:38.549Z,100975.53
2023-02-20T04:54:06.613Z,100970.16
2023-02-20T04:56:36.173Z,100967.59
2023-02-20T04:59:05.683Z,100968.31
2023-02-20T05:01:34.149Z,100976.41
2023-02-20T05:04:02.446Z,100978.09
2023-02-20T05:06:30.645Z,100982.66
2023-02-20T05:08:59.204Z,100984.38
2023-02-20T05:11:27.440Z,100981.50
2023-02-20T05:13:57.125Z,100984.06
2023-02-20T05:16:25.350Z,100985.75
2023-02-20T05:18:53.600Z,100975.50
2023-02-20T05:21:39.233Z,100982.03
2023-02-20T05:24:09.681Z,100977.91
2023-02-20T05:26:37.945Z,100987.16
2023-02-20T05:29:10.007Z,100985.31
2023-02-20T05:31:38.009Z,100986.72
2023-02-20T05:34:06.240Z,100983.16
2023-02-20T05:36:34.449Z,100978.63
2023-02-20T05:39:02.541Z,100973.06
2023-02-20T05:41:30.776Z,100964.97
2023-02-20T05:44:00.039Z,100970.06
2023-02-20T05:46:29.769Z,100971.06
2023-02-20T05:48:57.788Z,100969.38
2023-02-20T05:51:27.671Z,100974.47
2023-02-20T05:53:56.274Z,100975.88
2023-02-20T05:56:24.602Z,100978.56
2023-02-20T05:58:52.823Z,100975.16
2023-02-20T06:01:22.166Z,100976.72
2023-02-20T06:03:52.368Z,100982.25
2023-02-20T06:06:20.649Z,100975.16
2023-02-20T06:08:48.732Z,100973.31
2023-02-20T06:11:17.488Z,100975.88
2023-02-20T06:13:46.415Z,100978.84
2023-02-20T06:16:15.343Z,100972.75
2023-02-20T06:18:43.929Z,100975.16
2023-02-20T06:21:13.440Z,100977.69
2023-02-20T06:23:41.707Z,100967.06
2023-02-20T06:26:09.949Z,100971.75
2023-02-20T06:28:39.072Z,100963.66
2023-02-20T06:31:07.267Z,100974.84
2023-02-20T06:33:35.706Z,100969.06
2023-02-20T06:36:04.361Z,100965.50
2023-02-20T06:38:33.736Z,100962.66
2023-02-20T06:41:01.968Z,100951.84
2023-02-20T06:43:30.420Z,100959.94
2023-02-20T06:45:58.702Z,100959.66
2023-02-20T06:48:26.731Z,100964.91
2023-02-20T06:50:56.282Z,100976.25
2023-02-20T06:53:24.368Z,100972.88
2023-02-20T06:55:54.099Z,100958.06
2023-02-20T06:58:22.238Z,100970.84
2023-02-20T07:00:50.952Z,100966.59
2023-02-20T07:03:19.064Z,100964.91
2023-02-20T07:05:47.578Z,100960.34
2023-02-20T07:08:15.648Z,100965.44
2023-02-20T07:10:44.496Z,100975.25
2023-02-20T07:13:14.014Z,100969.84
2023-02-20T07:15:42.109Z,100973.25
2023-02-20T07:18:10.239Z,100963.31
2023-02-20T07:20:38.476Z,100964.16
2023-02-20T07:23:06.549Z,100971.94
2023-02-20T07:25:34.611Z,100976.66
2023-02-20T07:28:02.792Z,100968.94
2023-02-20T07:30:32.467Z,100970.78
2023-02-20T07:33:00.705Z,100968.81
2023-02-20T07:35:28.903Z,100975.03
2023-02-20T07:38:03.845Z,100971.34
2023-02-20T07:40:31.967Z,100969.34
2023-02-20T07:43:00.100Z,100966.47
2023-02-20T07:45:30.595Z,100971.19
2023-02-20T07:48:00.180Z,100982.69
2023-02-20T07:50:28.411Z,100970.72
2023-02-20T07:52:56.602Z,100960.25
2023-02-20T07:55:24.679Z,100964.50
2023-02-20T07:57:54.567Z,100967.03
2023-02-20T08:00:23.999Z,100961.31
2023-02-20T08:02:52.083Z,100969.28
2023-02-20T08:05:21.797Z,100964.72
2023-02-20T08:07:51.008Z,100976.22
2023-02-20T08:10:20.108Z,100965.56
2023-02-20T08:12:48.346Z,100964.41
2023-02-20T08:15:16.809Z,100970.34
2023-02-20T08:17:47.161Z,100974.91
2023-02-20T08:20:16.707Z,100974.59
2023-02-20T08:22:46.493Z,100975.13
2023-02-20T08:25:15.086Z,100971.75
2023-02-20T08:27:43.735Z,100976.53
2023-02-20T08:30:13.847Z,100965.19
2023-02-20T08:32:42.167Z,100967.44
2023-02-20T08:35:10.285Z,100959.47
2023-02-20T08:37:38.409Z,100956.97
2023-02-20T08:40:09.213Z,100957.38
2023-02-20T08:42:38.409Z,100952.81
2023-02-20T08:45:09.584Z,100945.41
2023-02-20T08:47:38.279Z,100955.91
2023-02-20T08:50:07.536Z,100961.88
2023-02-20T08:52:35.672Z,100953.28
2023-02-20T08:55:03.783Z,100941.94
2023-02-20T08:57:33.548Z,100938.78
2023-02-20T09:00:01.602Z,100941.47
2023-02-20T09:02:30.552Z,100941.31
2023-02-20T09:04:59.849Z,100940.13
2023-02-20T09:07:28.351Z,100941.19
2023-02-20T09:09:56.746Z,100941.50
2023-02-20T09:12:25.168Z,100939.19
2023-02-20T09:14:54.683Z,100934.47
2023-02-20T09:17:22.764Z,100938.56
2023-02-20T09:19:50.917Z,100940.69
2023-02-20T09:22:22.718Z,100936.78
2023-02-20T09:24:51.017Z,100929.53
2023-02-20T09:27:19.386Z,100938.34
2023-02-20T09:29:47.864Z,100937.66
2023-02-20T09:32:17.451Z,100937.00
2023-02-20T09:34:45.506Z,100946.50
2023-02-20T09:37:13.888Z,100942.31
2023-02-20T09:39:42.351Z,100948.25
2023-02-20T09:42:16.610Z,100945.91
2023-02-20T09:44:49.659Z,100938.47
2023-02-20T09:47:33.453Z,100925.00
2023-02-20T09:50:04.298Z,100927.75
2023-02-20T09:52:35.641Z,100921.50
2023-02-20T09:55:05.921Z,100923.75
2023-02-20T09:57:36.970Z,100922.72
2023-02-20T10:00:08.047Z,100916.84
2023-02-20T10:02:39.513Z,100911.56
2023-02-20T10:05:19.949Z,100918.44
2023-02-20T10:07:50.178Z,100911.84
2023-02-20T10:10:20.175Z,100910.69
2023-02-20T10:12:55.834Z,100906.28
2023-02-20T10:15:26.677Z,100910.19
2023-02-20T10:18:00.666Z,100909.72
2023-02-20T10:20:34.766Z,100909.72
2023-02-20T10:23:06.754Z,100896.16
2023-02-20T10:25:36.526Z,100899.56
2023-02-20T10:28:07.749Z,100892.97
2023-02-20T10:30:37.921Z,100900.06
2023-02-20T10:33:15.133Z,100898.88
2023-02-20T10:35:47.011Z,100908.38
2023-02-20T10:38:16.824Z,100903.13
2023-02-20T10:40:48.021Z,100898.22
2023-02-20T10:43:19.893Z,100893.78
2023-02-20T10:45:54.216Z,100893.13
2023-02-20T10:48:25.622Z,100889.22
2023-02-20T10:51:01.671Z,100887.03
2023-02-20T10:53:35.112Z,100886.38
2023-02-20T10:56:08.852Z,100887.34
2023-02-20T10:58:40.166Z,100892.78
2023-02-20T11:01:11.513Z,100882.28
2023-02-20T11:03:44.414Z,100882.97
2023-02-20T11:06:17.300Z,100885.50
2023-02-20T11:08:45.486Z,100884.00
2023-02-20T11:11:21.810Z,100884.16
2023-02-20T11:13:50.055Z,100871.78
2023-02-20T11:16:23.318Z,100867.72
2023-02-20T11:18:55.023Z,100861.63
2023-02-20T11:21:35.984Z,100869.41
2023-02-20T11:24:19.225Z,100866.34
2023-02-20T11:26:49.083Z,100868.22
2023-02-20T11:29:18.707Z,100867.75
2023-02-20T11:31:47.949Z,100874.88
2023-02-20T11:34:18.569Z,100869.63
2023-02-20T11:36:50.265Z,100860.28
2023-02-20T11:39:20.961Z,100866.03
2023-02-20T11:41:50.177Z,100863.16
2023-02-20T11:44:23.713Z,100859.25
2023-02-20T11:47:25.241Z,100852.66
2023-02-20T11:50:19.111Z,100864.31
2023-02-20T11:53:09.012Z,100859.22
2023-02-20T11:55:37.148Z,100854.84
2023-02-20T11:58:05.378Z,100851.47
2023-02-20T12:00:45.742Z,100855.50
2023-02-20T12:03:15.960Z,100846.69
2023-02-20T12:05:45.322Z,100848.88
2023-02-20T12:08:33.657Z,100847.34
2023-02-20T12:11:03.467Z,100844.00
2023-02-20T12:13:32.212Z,100844.81
2023-02-20T12:16:04.254Z,100843.28
2023-02-20T12:18:43.736Z,100841.09
2023-02-20T12:21:22.006Z,100847.66
2023-02-20T12:23:58.694Z,100838.31
2023-02-20T12:26:33.456Z,100834.06
2023-02-20T12:29:06.689Z,100829.97
2023-02-20T12:31:47.513Z,100832.66
2023-02-20T12:34:31.775Z,100833.31
2023-02-20T12:37:04.105Z,100825.13
2023-02-20T12:39:38.197Z,100820.06
2023-02-20T12:42:13.293Z,100820.31
2023-02-20T12:44:58.710Z,100823.00
2023-02-20T12:47:31.401Z,100810.13
2023-02-20T12:50:08.488Z,100809.75
2023-02-20T12:52:53.830Z,100806.34
2023-02-20T12:55:26.540Z,100811.38
2023-02-20T12:58:02.813Z,100809.81
2023-02-20T13:00:33.632Z,100799.34
2023-02-20T13:03:05.462Z,100793.09
2023-02-20T13:05:34.246Z,100795.19
2023-02-20T13:08:06.532Z,100793.63
2023-02-20T13:10:37.582Z,100792.97
2023-02-20T13:13:11.559Z,100794.47
2023-02-20T13:15:42.329Z,100787.16
2023-02-20T13:18:18.170Z,100782.09
2023-02-20T13:20:47.998Z,100781.22
2023-02-20T13:23:29.774Z,100788.38
2023-02-20T13:26:00.095Z,100771.41
2023-02-20T13:28:34.598Z,100777.16
2023-02-20T13:31:10.178Z,100772.16
2023-02-20T13:33:38.768Z,100759.13
2023-02-20T13:36:07.585Z,100752.78
2023-02-20T13:38:35.676Z,100756.50
2023-02-20T13:41:06.480Z,100757.75
2023-02-20T13:43:35.050Z,100751.69
2023-02-20T13:46:20.425Z,100760.63
2023-02-20T13:48:50.070Z,100750.66
2023-02-20T13:51:35.518Z,100754.06
2023-02-20T13:54:21.538Z,100745.53
2023-02-20T13:56:54.873Z,100747.59
2023-02-20T13:59:23.113Z,100729.50
2023-02-20T14:01:55.806Z,100732.53
2023-02-20T14:04:24.922Z,100736.00
2023-02-20T14:06:58.409Z,100734.91
2023-02-20T14:09:31.450Z,100733.34
2023-02-20T14:12:08.060Z,100729.41
2023-02-20T14:14:38.707Z,100724.13
2023-02-20T14:17:08.350Z,100727.44
2023-02-20T14:19:39.404Z,100722.00
2023-02-20T14:22:23.452Z,100706.38
2023-02-20T14:25:16.472Z,100695.88
2023-02-20T14:27:46.180Z,100703.75
2023-02-20T14:30:15.857Z,100701.38
2023-02-20T14:32:45.179Z,100700.19
2023-02-20T14:35:19.419Z,100702.81
2023-02-20T14:37:53.137Z,100704.59
2023-02-20T14:40:25.983Z,100705.06
2023-02-20T14:43:01.700Z,100698.13
2023-02-20T14:45:30.174Z,100697.00
2023-02-20T14:47:59.249Z,100697.31
2023-02-20T14:50:29.414Z,100694.00
2023-02-20T14:53:02.001Z,100690.63
2023-02-20T14:55:30.095Z,100689.41
2023-02-20T14:57:59.712Z,100683.13
2023-02-20T15:00:34.934Z,100688.47
2023-02-20T15:03:17.593Z,100684.63
2023-02-20T15:05:52.826Z,100686.88
2023-02-20T15:08:23.309Z,100694.09
2023-02-20T15:10:52.727Z,100688.66
2023-02-20T15:13:23.308Z,100686.03
2023-02-20T15:15:53.515Z,100683.03
2023-02-20T15:18:32.887Z,100684.25
2023-02-20T15:21:01.033Z,100677.88
2023-02-20T15:23:30.565Z,100679.84
2023-02-20T15:25:59.023Z,100686.28
2023-02-20T15:28:39.682Z,100685.16
2023-02-20T15:31:17.333Z,100680.38
2023-02-20T15:33:48.796Z,100684.06
2023-02-20T15:36:18.677Z,100680.47
2023-02-20T15:38:46.798Z,100685.09
2023-02-20T15:41:15.283Z,100682.63
2023-02-20T15:43:49.811Z,100675.16
2023-02-20T15:46:19.753Z,100678.72
2023-02-20T15:48:48.091Z,100673.66
2023-02-20T15:51:19.190Z,100678.91
2023-02-20T15:53:48.062Z,100671.41
2023-02-20T15:56:16.849Z,100672.91
2023-02-20T15:58:47.314Z,100678.81
2023-02-20T16:01:17.117Z,100674.41
2023-02-20T16:03:52.427Z,100677.41
2023-02-20T16:06:22.270Z,100679.09
2023-02-20T16:08:51.281Z,100673.84
2023-02-20T16:11:20.240Z,100675.25
2023-02-20T16:13:53.704Z,100670.47
2023-02-20T16:16:24.725Z,100668.31
2023-02-20T16:18:55.114Z,100677.78
2023-02-20T16:21:24.663Z,100668.31
2023-02-20T16:23:52.971Z,100676.38
2023-02-20T16:26:22.979Z,100674.22
2023-02-20T16:28:54.363Z,100669.72
2023-02-20T16:31:22.470Z,100680.88
2023-02-20T16:33:50.656Z,100676.00
2023-02-20T16:36:24.685Z,100677.88
2023-02-20T16:38:53.373Z,100664.47
2023-02-20T16:41:21.540Z,100669.91
2023-02-20T16:43:50.124Z,100667.28
2023-02-20T16:46:32.834Z,100659.75
2023-02-20T16:49:05.876Z,100663.00
2023-02-20T16:51:34.117Z,100666.16
2023-02-20T16:54:05.839Z,100658.84
2023-02-20T16:56:34.130Z,100671.09
2023-02-20T16:59:03.109Z,100672.88
2023-02-20T17:01:32.728Z,100674.06
2023-02-20T17:04:00.942Z,100665.53
2023-02-20T17:06:30.776Z,100670.94
2023-02-20T17:09:00.963Z,100678.81
2023-02-20T17:11:29.129Z,100667.84
2023-02-20T17:13:57.187Z,100675.97
2023-02-20T17:16:31.245Z,100677.19
2023-02-20T17:19:01.509Z,100682.59
2023-02-20T17:21:29.953Z,100674.50
2023-02-20T17:23:58.154Z,100679.75
2023-02-20T17:26:28.535Z,100682.38
2023-02-20T17:28:56.685Z,100680.03
2023-02-20T17:31:25.509Z,100682.41
2023-02-20T17:33:53.728Z,100697.00
2023-02-20T17:36:23.320Z,100694.31
2023-02-20T17:38:52.104Z,100694.69
2023-02-20T17:41:20.308Z,100696.38
2023-02-20T17:43:48.470Z,100691.69
2023-02-20T17:46:17.684Z,100692.88
2023-02-20T17:48:45.865Z,100692.03
2023-02-20T17:51:17.117Z,100695.78
2023-02-20T17:53:46.754Z,100694.44
2023-02-20T17:56:15.633Z,100701.22
2023-02-20T17:58:43.897Z,100700.91
2023-02-20T18:01:11.962Z,100702.97
2023-02-20T18:03:40.163Z,100698.06
2023-02-20T18:06:09.417Z,100706.88
2023-02-20T18:08:37.756Z,100707.59
2023-02-20T18:11:07.670Z,100705.44
2023-02-20T18:13:35.730Z,100711.03
2023-02-20T18:16:04.041Z,100706.41
2023-02-20T18:18:32.379Z,100711.84
2023-02-20T18:21:00.620Z,100706.59
2023-02-20T18:23:28.692Z,100709.50
2023-02-20T18:25:56.996Z,100708.13
2023-02-20T18:28:26.904Z,100716.44
2023-02-20T18:30:55.375Z,100719.88
2023-02-20T18:33:23.780Z,100726.47
2023-02-20T18:36:07.156Z,100725.97
2023-02-20T18:38:35.853Z,100732.22
2023-02-20T18:41:04.584Z,100731.59
2023-02-20T18:43:34.494Z,100733.59
2023-02-20T18:46:02.694Z,100732.06
2023-02-20T18:48:30.851Z,100730.41
2023-02-20T18:50:59.561Z,100732.94
2023-02-20T18:53:28.072Z,100737.84
2023-02-20T18:55:56.113Z,100736.00
2023-02-20T18:58:27.760Z,100739.72
2023-02-20T19:00:58.076Z,100738.34
2023-02-20T19:03:26.206Z,100737.00
2023-02-20T19:05:54.328Z,100735.31
2023-02-20T19:08:23.346Z,100736.34
2023-02-20T19:10:51.700Z,100733.97
2023-02-20T19:13:19.971Z,100726.03
2023-02-20T19:15:48.143Z,100729.56
2023-02-20T19:18:17.618Z,100720.78
2023-02-20T19:20:46.078Z,100723.84
2023-02-20T19:23:14.107Z,100727.19
2023-02-20T19:25:42.870Z,100724.84
2023-02-20T19:28:11.806Z,100729.91
2023-02-20T19:30:42.665Z,100717.41
2023-02-20T19:33:16.341Z,100723.28
2023-02-20T19:35:53.422Z,100728.88
2023-02-20T19:38:26.602Z,100732.94
2023-02-20T19:41:00.200Z,100717.72
2023-02-20T19:43:33.800Z,100726.00
2023-02-20T19:46:05.944Z,100727.84
2023-02-20T19:48:34.642Z,100715.66
2023-02-20T19:51:10.828Z,100723.97
2023-02-20T19:53:42.681Z,100713.97
2023-02-20T19:56:15.558Z,100710.75
2023-02-20T19:58:48.689Z,100708.53
2023-02-20T20:01:22.844Z,100717.84
2023-02-20T20:03:54.319Z,100716.34
2023-02-20T20:06:26.603Z,100711.22
2023-02-20T20:09:12.320Z,100707.84
2023-02-20T20:11:42.885Z,100707.66
2023-02-20T20:14:11.359Z,100703.47
2023-02-20T20:16:42.950Z,100696.69
2023-02-20T20:19:11.462Z,100689.91
2023-02-20T20:21:47.388Z,100696.66
2023-02-20T20:24:20.848Z,100696.13
2023-02-20T20:26:52.027Z,100701.16
2023-02-20T20:29:24.180Z,100703.88
2023-02-20T20:31:53.515Z,100705.19
2023-02-20T20:34:26.715Z,100694.72
2023-02-20T20:37:02.364Z,100696.06
2023-02-20T20:39:38.796Z,100691.16
2023-02-20T20:42:15.692Z,100697.56
2023-02-20T20:44:46.264Z,100696.84
2023-02-20T20:47:19.834Z,100700.91
2023-02-20T20:49:53.638Z,100693.47
2023-02-20T20:52:27.812Z,100691.78
2023-02-20T20:54:59.289Z,100696.34
2023-02-20T20:57:36.239Z,100704.28
2023-02-20T21:00:11.168Z,100704.28
2023-02-20T21:02:42.856Z,100702.59
2023-02-20T21:05:12.929Z,100699.22
2023-02-20T21:07:44.474Z,100689.41
2023-02-20T21:10:14.254Z,100685.00
2023-02-20T21:12:46.686Z,100692.28
2023-02-20T21:15:18.692Z,100686.31
2023-02-20T21:17:52.340Z,100691.72
2023-02-20T21:20:27.788Z,100687.88
2023-02-20T21:23:02.263Z,100686.88
2023-02-20T21:25:33.368Z,100697.50
2023-02-20T21:28:06.244Z,100699.00
2023-02-20T21:30:40.396Z,100695.31
2023-02-20T21:33:14.057Z,100690.72
2023-02-20T21:35:48.410Z,100688.19
2023-02-20T21:38:21.358Z,100683.63
2023-02-20T21:40:51.663Z,100684.81
2023-02-20T21:43:38.366Z,100682.94
2023-02-20T21:46:10.951Z,100679.25
2023-02-20T21:48:39.784Z,100682.28
2023-02-20T21:51:08.731Z,100685.66
2023-02-20T21:53:44.888Z,100684.81
2023-02-20T21:56:18.883Z,100684.81
2023-02-20T21:59:02.399Z,100676.00
2023-02-20T22:01:32.578Z,100677.50
2023-02-20T22:04:00.860Z,100674.81
2023-02-20T22:06:30.780Z,100669.06
2023-02-20T22:09:19.769Z,100670.44
2023-02-20T22:12:07.672Z,100668.56
2023-02-20T22:14:54.411Z,100668.41
2023-02-20T22:17:41.447Z,100666.53
2023-02-20T22:20:29.651Z,100667.72
2023-02-20T22:23:15.638Z,100664.88
2023-02-20T22:26:02.733Z,100660.63
2023-02-20T22:28:50.969Z,100658.91
2023-02-20T22:31:37.782Z,100656.22
2023-02-20T22:34:23.481Z,100650.16
2023-02-20T22:37:11.489Z,100647.75
2023-02-20T22:40:00.588Z,100636.94
2023-02-20T22:42:48.822Z,100635.25
2023-02-20T22:45:35.155Z,100643.03
2023-02-20T22:48:21.708Z,100635.91
2023-02-20T22:51:07.901Z,100629.50
2023-02-20T22:53:54.186Z,100628.16
2023-02-20T22:56:42.777Z,100636.25
2023-02-20T22:59:30.519Z,100631.41
2023-02-20T23:02:20.636Z,100637.97
2023-02-20T23:05:09.512Z,100637.81
2023-02-20T23:07:55.189Z,100638.97
2023-02-20T23:10:42.499Z,100639.81
2023-02-20T23:13:28.416Z,100633.56
2023-02-20T23:16:15.720Z,100636.25
2023-02-20T23:19:03.720Z,100628.81
2023-02-20T23:21:50.137Z,100625.78
2023-02-20T23:24:36.394Z,100629.50
2023-02-20T23:27:24.168Z,100627.13
2023-02-20T23:30:11.697Z,100628.50
2023-02-20T23:33:00.755Z,100632.69
2023-02-20T23:35:47.098Z,100631.34
2023-02-20T23:38:34.856Z,100629.81
2023-02-20T23:41:21.162Z,100627.44
2023-02-20T23:44:08.780Z,100631.16
2023-02-20T23:46:54.362Z,100626.91
2023-02-20T23:49:42.102Z,100632.16
2023-02-20T23:52:28.629Z,100624.38
2023-02-20T23:55:14.244Z,100626.59
2023-02-20T23:57:59.859Z,100622.88
